sensor_id;sensor_type;location;lat;lon;timestamp;temperature;humidity
35563;DHT22;21665;40.108;18.302;2022-09-09T00:02:19;25.80;99.90
35563;DHT22;21665;40.108;18.302;2022-09-09T03:06:12;25.70;99.90
35563;DHT22;21665;40.108;18.302;2022-09-09T03:08:55;25.70;99.90
35563;DHT22;21665;40.108;18.302;2022-09-09T03:11:50;25.70;99.90
35563;DHT22;21665;40.108;18.302;2022-09-09T03:14:43;25.70;99.90
35563;DHT22;21665;40.108;18.302;2022-09-09T06:45:12;29.20;99.90
35563;DHT22;21665;40.108;18.302;2022-09-09T06:47:48;28.70;99.90
35563;DHT22;21665;40.108;18.302;2022-09-09T06:53:33;28.20;99.90
35563;DHT22;21665;40.108;18.302;2022-09-09T06:56:36;28.10;99.90
35563;DHT22;21665;40.108;18.302;2022-09-09T07:58:02;30.30;99.90
35563;DHT22;21665;40.108;18.302;2022-09-09T08:00:33;30.60;99.90
35563;DHT22;21665;40.108;18.302;2022-09-09T08:03:10;30.60;99.90
35563;DHT22;21665;40.108;18.302;2022-09-09T08:05:48;30.60;99.90
35563;DHT22;21665;40.108;18.302;2022-09-09T08:08:18;30.70;99.90
35563;DHT22;21665;40.108;18.302;2022-09-09T08:10:45;30.90;99.90
35563;DHT22;21665;40.108;18.302;2022-09-09T08:13:12;31.10;99.90
35563;DHT22;21665;40.108;18.302;2022-09-09T08:15:39;31.30;99.90
35563;DHT22;21665;40.108;18.302;2022-09-09T08:18:07;31.10;99.90
35563;DHT22;21665;40.108;18.302;2022-09-09T08:20:36;30.90;99.90
35563;DHT22;21665;40.108;18.302;2022-09-09T08:23:03;31.00;99.90
35563;DHT22;21665;40.108;18.302;2022-09-09T08:25:30;31.40;99.90
35563;DHT22;21665;40.108;18.302;2022-09-09T08:27:57;31.60;99.90
35563;DHT22;21665;40.108;18.302;2022-09-09T08:30:42;31.20;99.90
35563;DHT22;21665;40.108;18.302;2022-09-09T08:33:21;31.20;99.90
35563;DHT22;21665;40.108;18.302;2022-09-09T08:35:51;31.10;99.90
35563;DHT22;21665;40.108;18.302;2022-09-09T08:38:18;31.00;99.90
35563;DHT22;21665;40.108;18.302;2022-09-09T08:40:49;31.00;99.90
35563;DHT22;21665;40.108;18.302;2022-09-09T08:43:22;31.10;99.90
35563;DHT22;21665;40.108;18.302;2022-09-09T08:46:33;31.20;99.90
35563;DHT22;21665;40.108;18.302;2022-09-09T08:51:44;32.00;99.90
35563;DHT22;21665;40.108;18.302;2022-09-09T08:54:11;31.80;99.90
35563;DHT22;21665;40.108;18.302;2022-09-09T08:56:41;31.50;99.90
35563;DHT22;21665;40.108;18.302;2022-09-09T08:59:10;31.00;99.90
35563;DHT22;21665;40.108;18.302;2022-09-09T09:01:54;30.60;99.90
35563;DHT22;21665;40.108;18.302;2022-09-09T09:07:48;30.70;99.90
35563;DHT22;21665;40.108;18.302;2022-09-09T09:18:49;31.70;99.90
35563;DHT22;21665;40.108;18.302;2022-09-09T09:21:36;32.00;99.90
35563;DHT22;21665;40.108;18.302;2022-09-09T09:24:18;32.20;99.90
35563;DHT22;21665;40.108;18.302;2022-09-09T09:26:47;32.40;99.90
35563;DHT22;21665;40.108;18.302;2022-09-09T09:29:19;32.60;99.90
35563;DHT22;21665;40.108;18.302;2022-09-09T10:55:24;32.90;99.90
35563;DHT22;21665;40.108;18.302;2022-09-09T10:57:58;33.10;99.90
35563;DHT22;21665;40.108;18.302;2022-09-09T11:16:58;32.50;99.90
35563;DHT22;21665;40.108;18.302;2022-09-09T11:19:40;32.60;99.90
35563;DHT22;21665;40.108;18.302;2022-09-09T11:51:25;33.10;99.90
35563;DHT22;21665;40.108;18.302;2022-09-09T11:54:48;32.80;99.90
35563;DHT22;21665;40.108;18.302;2022-09-09T12:01:37;32.30;99.90
35563;DHT22;21665;40.108;18.302;2022-09-09T12:20:40;32.30;99.90
35563;DHT22;21665;40.108;18.302;2022-09-09T12:24:02;32.40;99.90
35563;DHT22;21665;40.108;18.302;2022-09-09T12:55:49;32.50;99.90
35563;DHT22;21665;40.108;18.302;2022-09-09T13:02:27;32.50;99.90
35563;DHT22;21665;40.108;18.302;2022-09-09T13:10:27;32.30;99.90
35563;DHT22;21665;40.108;18.302;2022-09-09T13:13:19;31.80;99.90
35563;DHT22;21665;40.108;18.302;2022-09-09T13:15:59;31.50;99.90
35563;DHT22;21665;40.108;18.302;2022-09-09T13:18:42;31.60;99.90
35563;DHT22;21665;40.108;18.302;2022-09-09T13:27:36;31.50;99.90
35563;DHT22;21665;40.108;18.302;2022-09-09T13:30:29;31.50;99.90
35563;DHT22;21665;40.108;18.302;2022-09-09T13:38:53;31.70;99.90
35563;DHT22;21665;40.108;18.302;2022-09-09T14:55:01;30.70;99.90
35563;DHT22;21665;40.108;18.302;2022-09-09T15:01:15;30.70;99.90
35563;DHT22;21665;40.108;18.302;2022-09-09T15:04:01;30.60;99.90
35563;DHT22;21665;40.108;18.302;2022-09-09T15:10:08;30.70;99.90
35563;DHT22;21665;40.108;18.302;2022-09-09T15:12:38;30.50;99.90
35563;DHT22;21665;40.108;18.302;2022-09-09T15:15:05;30.20;99.90
35563;DHT22;21665;40.108;18.302;2022-09-09T15:17:32;30.40;99.90
35563;DHT22;21665;40.108;18.302;2022-09-09T15:19:59;30.30;99.90
35563;DHT22;21665;40.108;18.302;2022-09-09T15:22:26;30.20;99.90
35563;DHT22;21665;40.108;18.302;2022-09-09T15:24:53;30.30;99.90
35563;DHT22;21665;40.108;18.302;2022-09-09T15:27:20;30.30;99.90
35563;DHT22;21665;40.108;18.302;2022-09-09T15:29:46;30.20;99.90
35563;DHT22;21665;40.108;18.302;2022-09-09T15:32:13;30.10;99.90
35563;DHT22;21665;40.108;18.302;2022-09-09T15:34:40;30.00;99.90
35563;DHT22;21665;40.108;18.302;2022-09-09T15:37:09;29.90;99.90
35563;DHT22;21665;40.108;18.302;2022-09-09T15:39:37;29.90;99.90
35563;DHT22;21665;40.108;18.302;2022-09-09T15:42:07;29.70;99.90
35563;DHT22;21665;40.108;18.302;2022-09-09T15:44:41;29.70;99.90
35563;DHT22;21665;40.108;18.302;2022-09-09T15:47:11;29.50;99.90
35563;DHT22;21665;40.108;18.302;2022-09-09T15:49:38;29.40;99.90
35563;DHT22;21665;40.108;18.302;2022-09-09T15:52:05;29.40;99.90
35563;DHT22;21665;40.108;18.302;2022-09-09T15:54:34;29.40;99.90
35563;DHT22;21665;40.108;18.302;2022-09-09T15:57:03;29.40;99.90
35563;DHT22;21665;40.108;18.302;2022-09-09T15:59:31;29.40;99.90
35563;DHT22;21665;40.108;18.302;2022-09-09T16:02:00;29.40;99.90
35563;DHT22;21665;40.108;18.302;2022-09-09T16:04:27;29.00;99.90
35563;DHT22;21665;40.108;18.302;2022-09-09T16:07:01;28.90;99.90
35563;DHT22;21665;40.108;18.302;2022-09-09T16:09:30;28.70;99.90
35563;DHT22;21665;40.108;18.302;2022-09-09T16:11:59;28.60;99.90
35563;DHT22;21665;40.108;18.302;2022-09-09T16:14:27;28.50;99.90
35563;DHT22;21665;40.108;18.302;2022-09-09T16:16:54;28.30;99.90
35563;DHT22;21665;40.108;18.302;2022-09-09T16:19:21;28.20;99.90
35563;DHT22;21665;40.108;18.302;2022-09-09T16:21:50;28.10;99.90
35563;DHT22;21665;40.108;18.302;2022-09-09T16:24:19;28.10;99.90
35563;DHT22;21665;40.108;18.302;2022-09-09T16:26:52;28.00;99.90
35563;DHT22;21665;40.108;18.302;2022-09-09T16:29:22;28.00;99.90
35563;DHT22;21665;40.108;18.302;2022-09-09T16:31:49;28.10;99.90
35563;DHT22;21665;40.108;18.302;2022-09-09T16:34:17;27.90;99.90
35563;DHT22;21665;40.108;18.302;2022-09-09T16:36:45;27.80;99.90
35563;DHT22;21665;40.108;18.302;2022-09-09T16:39:14;27.70;99.90
35563;DHT22;21665;40.108;18.302;2022-09-09T16:41:43;27.60;99.90
35563;DHT22;21665;40.108;18.302;2022-09-09T16:44:13;27.60;99.90
35563;DHT22;21665;40.108;18.302;2022-09-09T16:46:43;27.60;99.90
35563;DHT22;21665;40.108;18.302;2022-09-09T16:49:13;27.50;99.90
35563;DHT22;21665;40.108;18.302;2022-09-09T16:51:44;27.40;99.90
35563;DHT22;21665;40.108;18.302;2022-09-09T16:54:12;27.30;99.90
35563;DHT22;21665;40.108;18.302;2022-09-09T16:56:42;27.30;99.90
35563;DHT22;21665;40.108;18.302;2022-09-09T16:59:15;27.30;99.90
35563;DHT22;21665;40.108;18.302;2022-09-09T17:01:44;27.30;99.90
35563;DHT22;21665;40.108;18.302;2022-09-09T17:04:14;27.20;99.90
35563;DHT22;21665;40.108;18.302;2022-09-09T17:06:46;27.20;99.90
35563;DHT22;21665;40.108;18.302;2022-09-09T17:09:14;27.20;99.90
35563;DHT22;21665;40.108;18.302;2022-09-09T17:11:40;27.20;99.90
35563;DHT22;21665;40.108;18.302;2022-09-09T17:14:10;27.10;99.90
35563;DHT22;21665;40.108;18.302;2022-09-09T17:16:38;27.10;99.90
35563;DHT22;21665;40.108;18.302;2022-09-09T17:19:06;27.00;99.90
35563;DHT22;21665;40.108;18.302;2022-09-09T17:21:35;27.00;99.90
35563;DHT22;21665;40.108;18.302;2022-09-09T17:24:03;26.90;99.90
35563;DHT22;21665;40.108;18.302;2022-09-09T17:26:31;27.00;99.90
35563;DHT22;21665;40.108;18.302;2022-09-09T17:29:03;26.90;99.90
35563;DHT22;21665;40.108;18.302;2022-09-09T17:31:31;26.90;99.90
35563;DHT22;21665;40.108;18.302;2022-09-09T17:34:00;26.90;99.90
35563;DHT22;21665;40.108;18.302;2022-09-09T17:36:31;26.80;99.90
35563;DHT22;21665;40.108;18.302;2022-09-09T17:38:58;26.80;99.90
35563;DHT22;21665;40.108;18.302;2022-09-09T17:41:29;26.80;99.90
35563;DHT22;21665;40.108;18.302;2022-09-09T17:43:56;26.80;99.90
35563;DHT22;21665;40.108;18.302;2022-09-09T17:46:29;26.80;99.90
35563;DHT22;21665;40.108;18.302;2022-09-09T17:48:59;26.80;99.90
35563;DHT22;21665;40.108;18.302;2022-09-09T17:51:29;26.70;99.90
35563;DHT22;21665;40.108;18.302;2022-09-09T17:53:59;26.70;99.90
35563;DHT22;21665;40.108;18.302;2022-09-09T17:56:28;26.70;99.90
35563;DHT22;21665;40.108;18.302;2022-09-09T17:59:01;26.70;99.90
35563;DHT22;21665;40.108;18.302;2022-09-09T18:01:32;26.70;99.90
35563;DHT22;21665;40.108;18.302;2022-09-09T18:04:01;26.70;99.90
35563;DHT22;21665;40.108;18.302;2022-09-09T18:06:33;26.70;99.90
35563;DHT22;21665;40.108;18.302;2022-09-09T18:09:07;26.70;99.90
35563;DHT22;21665;40.108;18.302;2022-09-09T18:11:41;26.70;99.90
35563;DHT22;21665;40.108;18.302;2022-09-09T18:14:12;26.70;99.90
35563;DHT22;21665;40.108;18.302;2022-09-09T18:16:41;26.70;99.90
35563;DHT22;21665;40.108;18.302;2022-09-09T18:19:10;26.70;99.90
35563;DHT22;21665;40.108;18.302;2022-09-09T18:21:40;26.60;99.90
35563;DHT22;21665;40.108;18.302;2022-09-09T18:24:08;26.60;99.90
35563;DHT22;21665;40.108;18.302;2022-09-09T18:26:36;26.60;99.90
35563;DHT22;21665;40.108;18.302;2022-09-09T18:29:05;26.60;99.90
35563;DHT22;21665;40.108;18.302;2022-09-09T18:31:33;26.60;99.90
35563;DHT22;21665;40.108;18.302;2022-09-09T18:34:02;26.60;99.90
35563;DHT22;21665;40.108;18.302;2022-09-09T18:36:32;26.60;99.90
35563;DHT22;21665;40.108;18.302;2022-09-09T18:39:00;26.60;99.90
35563;DHT22;21665;40.108;18.302;2022-09-09T18:41:34;26.60;99.90
35563;DHT22;21665;40.108;18.302;2022-09-09T18:44:04;26.70;99.90
35563;DHT22;21665;40.108;18.302;2022-09-09T18:46:33;26.70;99.90
35563;DHT22;21665;40.108;18.302;2022-09-09T18:49:00;26.60;99.90
35563;DHT22;21665;40.108;18.302;2022-09-09T18:51:28;26.60;99.90
35563;DHT22;21665;40.108;18.302;2022-09-09T18:53:57;26.60;99.90
35563;DHT22;21665;40.108;18.302;2022-09-09T18:56:24;26.60;99.90
35563;DHT22;21665;40.108;18.302;2022-09-09T18:58:57;26.50;99.90
35563;DHT22;21665;40.108;18.302;2022-09-09T19:01:24;26.50;99.90
35563;DHT22;21665;40.108;18.302;2022-09-09T19:03:52;26.50;99.90
35563;DHT22;21665;40.108;18.302;2022-09-09T19:06:22;26.50;99.90
35563;DHT22;21665;40.108;18.302;2022-09-09T19:08:50;26.50;99.90
35563;DHT22;21665;40.108;18.302;2022-09-09T19:11:27;26.50;99.90
35563;DHT22;21665;40.108;18.302;2022-09-09T19:13:59;26.40;99.90
35563;DHT22;21665;40.108;18.302;2022-09-09T19:16:28;26.50;99.90
35563;DHT22;21665;40.108;18.302;2022-09-09T19:18:57;26.50;99.90
35563;DHT22;21665;40.108;18.302;2022-09-09T19:21:28;26.50;99.90
35563;DHT22;21665;40.108;18.302;2022-09-09T19:24:00;26.50;99.90
35563;DHT22;21665;40.108;18.302;2022-09-09T19:26:29;26.50;99.90
35563;DHT22;21665;40.108;18.302;2022-09-09T19:28:58;26.40;99.90
35563;DHT22;21665;40.108;18.302;2022-09-09T19:31:25;26.40;99.90
35563;DHT22;21665;40.108;18.302;2022-09-09T19:33:54;26.40;99.90
35563;DHT22;21665;40.108;18.302;2022-09-09T19:36:24;26.40;99.90
35563;DHT22;21665;40.108;18.302;2022-09-09T19:39:00;26.50;99.90
35563;DHT22;21665;40.108;18.302;2022-09-09T19:41:29;26.50;99.90
35563;DHT22;21665;40.108;18.302;2022-09-09T19:44:01;26.50;99.90
35563;DHT22;21665;40.108;18.302;2022-09-09T19:46:29;26.50;99.90
35563;DHT22;21665;40.108;18.302;2022-09-09T19:48:56;26.50;99.90
35563;DHT22;21665;40.108;18.302;2022-09-09T19:51:24;26.50;99.90
35563;DHT22;21665;40.108;18.302;2022-09-09T19:53:53;26.40;99.90
35563;DHT22;21665;40.108;18.302;2022-09-09T19:56:27;26.50;99.90
35563;DHT22;21665;40.108;18.302;2022-09-09T19:58:55;26.40;99.90
35563;DHT22;21665;40.108;18.302;2022-09-09T20:01:34;26.40;99.90
35563;DHT22;21665;40.108;18.302;2022-09-09T20:04:03;26.40;99.90
35563;DHT22;21665;40.108;18.302;2022-09-09T20:06:33;26.40;99.90
35563;DHT22;21665;40.108;18.302;2022-09-09T20:09:01;26.40;99.90
35563;DHT22;21665;40.108;18.302;2022-09-09T20:11:29;26.40;99.90
35563;DHT22;21665;40.108;18.302;2022-09-09T20:13:55;26.40;99.90
35563;DHT22;21665;40.108;18.302;2022-09-09T20:16:25;26.50;99.90
35563;DHT22;21665;40.108;18.302;2022-09-09T20:18:57;26.50;99.90
35563;DHT22;21665;40.108;18.302;2022-09-09T20:21:28;26.50;99.90
35563;DHT22;21665;40.108;18.302;2022-09-09T20:24:01;26.50;99.90
35563;DHT22;21665;40.108;18.302;2022-09-09T20:26:29;26.50;99.90
35563;DHT22;21665;40.108;18.302;2022-09-09T20:28:58;26.50;99.90
35563;DHT22;21665;40.108;18.302;2022-09-09T20:31:36;26.40;99.90
35563;DHT22;21665;40.108;18.302;2022-09-09T20:34:10;26.40;99.90
35563;DHT22;21665;40.108;18.302;2022-09-09T20:36:39;26.40;99.90
35563;DHT22;21665;40.108;18.302;2022-09-09T20:39:10;26.40;99.90
35563;DHT22;21665;40.108;18.302;2022-09-09T20:41:39;26.40;99.90
35563;DHT22;21665;40.108;18.302;2022-09-09T20:44:09;26.40;99.90
35563;DHT22;21665;40.108;18.302;2022-09-09T20:46:54;26.40;99.90
35563;DHT22;21665;40.108;18.302;2022-09-09T20:49:29;26.40;99.90
35563;DHT22;21665;40.108;18.302;2022-09-09T20:51:56;26.40;99.90
35563;DHT22;21665;40.108;18.302;2022-09-09T20:54:24;26.40;99.90
35563;DHT22;21665;40.108;18.302;2022-09-09T20:56:53;26.40;99.90
35563;DHT22;21665;40.108;18.302;2022-09-09T20:59:25;26.40;99.90
35563;DHT22;21665;40.108;18.302;2022-09-09T21:01:53;26.40;99.90
35563;DHT22;21665;40.108;18.302;2022-09-09T21:04:22;26.40;99.90
35563;DHT22;21665;40.108;18.302;2022-09-09T21:06:50;26.40;99.90
35563;DHT22;21665;40.108;18.302;2022-09-09T21:09:17;26.50;99.90
35563;DHT22;21665;40.108;18.302;2022-09-09T21:11:44;26.50;99.90
35563;DHT22;21665;40.108;18.302;2022-09-09T21:14:13;26.50;99.90
35563;DHT22;21665;40.108;18.302;2022-09-09T21:16:40;26.40;99.90
35563;DHT22;21665;40.108;18.302;2022-09-09T21:19:09;26.40;99.90
35563;DHT22;21665;40.108;18.302;2022-09-09T21:21:36;26.40;99.90
35563;DHT22;21665;40.108;18.302;2022-09-09T21:24:03;26.40;99.90
35563;DHT22;21665;40.108;18.302;2022-09-09T21:26:30;26.40;99.90
35563;DHT22;21665;40.108;18.302;2022-09-09T21:28:56;26.40;99.90
35563;DHT22;21665;40.108;18.302;2022-09-09T21:31:23;26.40;99.90
35563;DHT22;21665;40.108;18.302;2022-09-09T21:33:50;26.40;99.90
35563;DHT22;21665;40.108;18.302;2022-09-09T21:36:17;26.40;99.90
35563;DHT22;21665;40.108;18.302;2022-09-09T21:38:43;26.40;99.90
35563;DHT22;21665;40.108;18.302;2022-09-09T21:41:13;26.40;99.90
35563;DHT22;21665;40.108;18.302;2022-09-09T21:43:44;26.40;99.90
35563;DHT22;21665;40.108;18.302;2022-09-09T21:46:14;26.40;99.90
35563;DHT22;21665;40.108;18.302;2022-09-09T21:48:42;26.40;99.90
35563;DHT22;21665;40.108;18.302;2022-09-09T21:51:11;26.40;99.90
35563;DHT22;21665;40.108;18.302;2022-09-09T21:53:39;26.30;99.90
35563;DHT22;21665;40.108;18.302;2022-09-09T21:56:10;26.30;99.90
35563;DHT22;21665;40.108;18.302;2022-09-09T21:58:37;26.30;99.90
35563;DHT22;21665;40.108;18.302;2022-09-09T22:01:14;26.30;99.90
35563;DHT22;21665;40.108;18.302;2022-09-09T22:03:42;26.30;99.90
35563;DHT22;21665;40.108;18.302;2022-09-09T22:06:11;26.30;99.90
35563;DHT22;21665;40.108;18.302;2022-09-09T22:08:39;26.30;99.90
35563;DHT22;21665;40.108;18.302;2022-09-09T22:11:08;26.30;99.90
35563;DHT22;21665;40.108;18.302;2022-09-09T22:13:36;26.30;99.90
35563;DHT22;21665;40.108;18.302;2022-09-09T22:16:05;26.30;99.90
35563;DHT22;21665;40.108;18.302;2022-09-09T22:18:32;26.30;99.90
35563;DHT22;21665;40.108;18.302;2022-09-09T22:21:06;26.30;99.90
35563;DHT22;21665;40.108;18.302;2022-09-09T22:23:36;26.30;99.90
35563;DHT22;21665;40.108;18.302;2022-09-09T22:26:03;26.20;99.90
35563;DHT22;21665;40.108;18.302;2022-09-09T22:28:31;26.20;99.90
35563;DHT22;21665;40.108;18.302;2022-09-09T22:30:57;26.20;99.90
35563;DHT22;21665;40.108;18.302;2022-09-09T22:33:24;26.10;99.90
35563;DHT22;21665;40.108;18.302;2022-09-09T22:35:53;26.10;99.90
35563;DHT22;21665;40.108;18.302;2022-09-09T22:38:19;26.20;99.90
35563;DHT22;21665;40.108;18.302;2022-09-09T22:40:51;26.10;99.90
35563;DHT22;21665;40.108;18.302;2022-09-09T22:43:20;26.10;99.90
35563;DHT22;21665;40.108;18.302;2022-09-09T22:45:48;26.10;99.90
35563;DHT22;21665;40.108;18.302;2022-09-09T22:48:16;26.10;99.90
35563;DHT22;21665;40.108;18.302;2022-09-09T22:50:43;26.00;99.90
35563;DHT22;21665;40.108;18.302;2022-09-09T22:53:18;26.10;99.90
35563;DHT22;21665;40.108;18.302;2022-09-09T22:55:59;26.10;99.90
35563;DHT22;21665;40.108;18.302;2022-09-09T22:58:29;26.00;99.90
35563;DHT22;21665;40.108;18.302;2022-09-09T23:00:57;26.00;99.90
35563;DHT22;21665;40.108;18.302;2022-09-09T23:03:29;26.00;99.90
35563;DHT22;21665;40.108;18.302;2022-09-09T23:06:00;26.00;99.90
35563;DHT22;21665;40.108;18.302;2022-09-09T23:08:32;26.00;99.90
35563;DHT22;21665;40.108;18.302;2022-09-09T23:11:03;25.90;99.90
35563;DHT22;21665;40.108;18.302;2022-09-09T23:13:56;25.80;99.90
35563;DHT22;21665;40.108;18.302;2022-09-09T23:16:31;25.90;99.90
35563;DHT22;21665;40.108;18.302;2022-09-09T23:19:02;25.90;99.90
35563;DHT22;21665;40.108;18.302;2022-09-09T23:21:29;25.90;99.90
